sensor_id;sensor_type;location;lat;lon;timestamp;P1;durP1;ratioP1;P2;durP2;ratioP2
11957;SDS011;6039;52.576;13.348;2023-06-22T00:01:14;7.63;;;6.73;;
11957;SDS011;6039;52.576;13.348;2023-06-22T00:06:18;10.13;;;6.90;;
11957;SDS011;6039;52.576;13.348;2023-06-22T00:11:25;9.27;;;7.00;;
11957;SDS011;6039;52.576;13.348;2023-06-22T00:16:31;10.13;;;7.20;;
11957;SDS011;6039;52.576;13.348;2023-06-22T00:21:35;9.83;;;7.13;;
11957;SDS011;6039;52.576;13.348;2023-06-22T00:26:42;9.53;;;6.50;;
11957;SDS011;6039;52.576;13.348;2023-06-22T00:31:46;11.23;;;7.90;;
11957;SDS011;6039;52.576;13.348;2023-06-22T00:36:50;7.77;;;6.37;;
11957;SDS011;6039;52.576;13.348;2023-06-22T00:41:57;8.67;;;7.50;;
11957;SDS011;6039;52.576;13.348;2023-06-22T00:47:01;10.60;;;7.83;;
11957;SDS011;6039;52.576;13.348;2023-06-22T00:52:06;9.30;;;7.40;;
11957;SDS011;6039;52.576;13.348;2023-06-22T00:57:16;8.63;;;7.40;;
11957;SDS011;6039;52.576;13.348;2023-06-22T01:02:20;10.43;;;7.83;;
11957;SDS011;6039;52.576;13.348;2023-06-22T01:07:26;9.27;;;7.30;;
11957;SDS011;6039;52.576;13.348;2023-06-22T01:12:38;9.13;;;7.73;;
11957;SDS011;6039;52.576;13.348;2023-06-22T01:17:46;10.33;;;7.60;;
11957;SDS011;6039;52.576;13.348;2023-06-22T01:22:57;8.97;;;7.30;;
11957;SDS011;6039;52.576;13.348;2023-06-22T01:28:16;9.37;;;8.07;;
11957;SDS011;6039;52.576;13.348;2023-06-22T01:33:28;8.73;;;7.47;;
11957;SDS011;6039;52.576;13.348;2023-06-22T01:38:33;8.93;;;7.80;;
11957;SDS011;6039;52.576;13.348;2023-06-22T01:43:37;9.00;;;7.80;;
11957;SDS011;6039;52.576;13.348;2023-06-22T01:48:44;9.17;;;7.63;;
11957;SDS011;6039;52.576;13.348;2023-06-22T01:53:48;10.70;;;7.83;;
11957;SDS011;6039;52.576;13.348;2023-06-22T01:58:55;11.30;;;6.93;;
11957;SDS011;6039;52.576;13.348;2023-06-22T02:04:08;8.67;;;7.40;;
11957;SDS011;6039;52.576;13.348;2023-06-22T02:09:16;8.97;;;7.70;;
11957;SDS011;6039;52.576;13.348;2023-06-22T02:14:21;8.70;;;7.40;;
11957;SDS011;6039;52.576;13.348;2023-06-22T02:19:28;9.33;;;7.30;;
11957;SDS011;6039;52.576;13.348;2023-06-22T02:24:33;10.67;;;8.13;;
11957;SDS011;6039;52.576;13.348;2023-06-22T02:29:37;9.27;;;7.47;;
11957;SDS011;6039;52.576;13.348;2023-06-22T02:34:43;11.67;;;7.33;;
11957;SDS011;6039;52.576;13.348;2023-06-22T02:39:48;10.70;;;8.43;;
11957;SDS011;6039;52.576;13.348;2023-06-22T02:44:52;9.83;;;8.00;;
11957;SDS011;6039;52.576;13.348;2023-06-22T02:49:58;13.87;;;8.27;;
11957;SDS011;6039;52.576;13.348;2023-06-22T02:55:03;12.87;;;9.27;;
11957;SDS011;6039;52.576;13.348;2023-06-22T03:00:09;11.60;;;8.40;;
11957;SDS011;6039;52.576;13.348;2023-06-22T03:05:20;9.10;;;7.83;;
11957;SDS011;6039;52.576;13.348;2023-06-22T03:10:24;11.10;;;8.57;;
11957;SDS011;6039;52.576;13.348;2023-06-22T03:15:28;11.37;;;8.73;;
11957;SDS011;6039;52.576;13.348;2023-06-22T03:20:35;11.50;;;9.33;;
11957;SDS011;6039;52.576;13.348;2023-06-22T03:25:40;11.60;;;9.27;;
11957;SDS011;6039;52.576;13.348;2023-06-22T03:30:44;12.10;;;9.43;;
11957;SDS011;6039;52.576;13.348;2023-06-22T03:35:51;12.43;;;10.17;;
11957;SDS011;6039;52.576;13.348;2023-06-22T03:40:55;13.83;;;10.30;;
11957;SDS011;6039;52.576;13.348;2023-06-22T03:45:59;14.47;;;11.80;;
11957;SDS011;6039;52.576;13.348;2023-06-22T03:51:05;13.80;;;10.43;;
11957;SDS011;6039;52.576;13.348;2023-06-22T03:56:09;13.60;;;10.43;;
11957;SDS011;6039;52.576;13.348;2023-06-22T04:01:20;12.40;;;9.47;;
11957;SDS011;6039;52.576;13.348;2023-06-22T04:06:26;13.43;;;9.70;;
11957;SDS011;6039;52.576;13.348;2023-06-22T04:11:30;15.07;;;10.10;;
11957;SDS011;6039;52.576;13.348;2023-06-22T04:16:34;12.70;;;9.77;;
11957;SDS011;6039;52.576;13.348;2023-06-22T04:21:41;13.37;;;9.63;;
11957;SDS011;6039;52.576;13.348;2023-06-22T04:26:45;10.10;;;8.73;;
11957;SDS011;6039;52.576;13.348;2023-06-22T04:31:48;13.70;;;8.13;;
11957;SDS011;6039;52.576;13.348;2023-06-22T04:36:55;11.97;;;8.70;;
11957;SDS011;6039;52.576;13.348;2023-06-22T04:41:59;10.13;;;7.70;;
11957;SDS011;6039;52.576;13.348;2023-06-22T04:47:03;8.97;;;7.53;;
11957;SDS011;6039;52.576;13.348;2023-06-22T04:52:11;8.33;;;6.63;;
11957;SDS011;6039;52.576;13.348;2023-06-22T04:57:20;10.43;;;6.60;;
11957;SDS011;6039;52.576;13.348;2023-06-22T05:02:32;8.17;;;5.83;;
11957;SDS011;6039;52.576;13.348;2023-06-22T05:07:39;11.47;;;6.37;;
11957;SDS011;6039;52.576;13.348;2023-06-22T05:12:45;8.50;;;5.80;;
11957;SDS011;6039;52.576;13.348;2023-06-22T05:17:49;6.77;;;5.13;;
11957;SDS011;6039;52.576;13.348;2023-06-22T05:22:56;6.90;;;5.50;;
11957;SDS011;6039;52.576;13.348;2023-06-22T05:28:00;7.37;;;5.10;;
11957;SDS011;6039;52.576;13.348;2023-06-22T05:33:11;6.60;;;4.57;;
11957;SDS011;6039;52.576;13.348;2023-06-22T05:38:17;5.60;;;4.53;;
11957;SDS011;6039;52.576;13.348;2023-06-22T05:43:21;5.27;;;3.90;;
11957;SDS011;6039;52.576;13.348;2023-06-22T05:48:25;4.60;;;3.57;;
11957;SDS011;6039;52.576;13.348;2023-06-22T05:53:32;4.83;;;3.43;;
11957;SDS011;6039;52.576;13.348;2023-06-22T05:58:36;3.57;;;3.07;;
11957;SDS011;6039;52.576;13.348;2023-06-22T06:03:40;3.53;;;2.93;;
11957;SDS011;6039;52.576;13.348;2023-06-22T06:08:46;4.60;;;3.50;;
11957;SDS011;6039;52.576;13.348;2023-06-22T06:13:50;3.77;;;3.07;;
11957;SDS011;6039;52.576;13.348;2023-06-22T06:18:54;3.63;;;3.20;;
11957;SDS011;6039;52.576;13.348;2023-06-22T06:24:01;4.03;;;3.10;;
11957;SDS011;6039;52.576;13.348;2023-06-22T06:29:05;4.67;;;3.07;;
11957;SDS011;6039;52.576;13.348;2023-06-22T06:34:09;3.13;;;2.83;;
11957;SDS011;6039;52.576;13.348;2023-06-22T06:39:16;8.10;;;3.10;;
11957;SDS011;6039;52.576;13.348;2023-06-22T06:44:20;3.83;;;3.03;;
11957;SDS011;6039;52.576;13.348;2023-06-22T06:49:24;3.60;;;2.83;;
11957;SDS011;6039;52.576;13.348;2023-06-22T06:54:31;3.87;;;2.70;;
11957;SDS011;6039;52.576;13.348;2023-06-22T06:59:36;3.40;;;3.00;;
11957;SDS011;6039;52.576;13.348;2023-06-22T07:04:40;3.60;;;2.97;;
11957;SDS011;6039;52.576;13.348;2023-06-22T07:09:47;3.90;;;3.00;;
11957;SDS011;6039;52.576;13.348;2023-06-22T07:14:51;3.20;;;2.43;;
11957;SDS011;6039;52.576;13.348;2023-06-22T07:19:55;3.07;;;2.63;;
11957;SDS011;6039;52.576;13.348;2023-06-22T07:25:02;3.43;;;2.53;;
11957;SDS011;6039;52.576;13.348;2023-06-22T07:30:09;3.30;;;2.57;;
11957;SDS011;6039;52.576;13.348;2023-06-22T07:35:14;3.77;;;2.80;;
11957;SDS011;6039;52.576;13.348;2023-06-22T07:40:21;3.40;;;2.83;;
11957;SDS011;6039;52.576;13.348;2023-06-22T07:45:25;4.10;;;2.43;;
11957;SDS011;6039;52.576;13.348;2023-06-22T07:50:29;4.20;;;3.70;;
11957;SDS011;6039;52.576;13.348;2023-06-22T07:55:36;2.78;;;2.30;;
11957;SDS011;6039;52.576;13.348;2023-06-22T08:00:40;2.15;;;1.95;;
11957;SDS011;6039;52.576;13.348;2023-06-22T08:05:44;2.70;;;2.30;;
11957;SDS011;6039;52.576;13.348;2023-06-22T08:10:51;3.70;;;2.87;;
11957;SDS011;6039;52.576;13.348;2023-06-22T08:15:55;3.00;;;2.17;;
11957;SDS011;6039;52.576;13.348;2023-06-22T08:20:59;2.47;;;2.23;;
11957;SDS011;6039;52.576;13.348;2023-06-22T08:26:10;2.20;;;2.00;;
11957;SDS011;6039;52.576;13.348;2023-06-22T08:31:18;2.33;;;1.90;;
11957;SDS011;6039;52.576;13.348;2023-06-22T08:36:22;3.20;;;2.55;;
11957;SDS011;6039;52.576;13.348;2023-06-22T08:41:31;3.67;;;2.30;;
11957;SDS011;6039;52.576;13.348;2023-06-22T08:46:35;3.53;;;2.10;;
11957;SDS011;6039;52.576;13.348;2023-06-22T08:51:40;2.83;;;2.30;;
11957;SDS011;6039;52.576;13.348;2023-06-22T08:56:48;2.15;;;1.85;;
11957;SDS011;6039;52.576;13.348;2023-06-22T09:01:52;4.25;;;2.10;;
11957;SDS011;6039;52.576;13.348;2023-06-22T09:06:56;6.45;;;2.33;;
11957;SDS011;6039;52.576;13.348;2023-06-22T09:12:03;2.70;;;2.50;;
11957;SDS011;6039;52.576;13.348;2023-06-22T09:17:08;2.40;;;2.20;;
11957;SDS011;6039;52.576;13.348;2023-06-22T09:22:12;3.60;;;2.67;;
11957;SDS011;6039;52.576;13.348;2023-06-22T09:27:18;2.97;;;2.60;;
11957;SDS011;6039;52.576;13.348;2023-06-22T09:32:22;3.83;;;3.00;;
11957;SDS011;6039;52.576;13.348;2023-06-22T09:37:26;3.15;;;2.50;;
11957;SDS011;6039;52.576;13.348;2023-06-22T09:42:33;2.83;;;2.45;;
11957;SDS011;6039;52.576;13.348;2023-06-22T09:47:37;3.03;;;2.70;;
11957;SDS011;6039;52.576;13.348;2023-06-22T09:52:42;3.67;;;2.70;;
11957;SDS011;6039;52.576;13.348;2023-06-22T09:57:53;4.70;;;2.90;;
11957;SDS011;6039;52.576;13.348;2023-06-22T10:02:57;3.25;;;2.88;;
11957;SDS011;6039;52.576;13.348;2023-06-22T10:08:01;3.30;;;2.97;;
11957;SDS011;6039;52.576;13.348;2023-06-22T10:13:10;2.90;;;2.55;;
11957;SDS011;6039;52.576;13.348;2023-06-22T10:18:14;3.53;;;2.83;;
11957;SDS011;6039;52.576;13.348;2023-06-22T10:23:19;3.00;;;2.75;;
11957;SDS011;6039;52.576;13.348;2023-06-22T10:28:26;3.22;;;2.88;;
11957;SDS011;6039;52.576;13.348;2023-06-22T10:33:29;3.33;;;3.03;;
11957;SDS011;6039;52.576;13.348;2023-06-22T10:38:33;3.75;;;3.00;;
11957;SDS011;6039;52.576;13.348;2023-06-22T10:43:40;3.50;;;3.13;;
11957;SDS011;6039;52.576;13.348;2023-06-22T10:48:44;3.42;;;2.97;;
11957;SDS011;6039;52.576;13.348;2023-06-22T10:53:48;3.17;;;2.88;;
11957;SDS011;6039;52.576;13.348;2023-06-22T10:58:55;3.05;;;2.80;;
11957;SDS011;6039;52.576;13.348;2023-06-22T11:03:59;3.53;;;3.20;;
11957;SDS011;6039;52.576;13.348;2023-06-22T11:09:03;3.35;;;3.05;;
11957;SDS011;6039;52.576;13.348;2023-06-22T11:14:10;3.08;;;2.78;;
11957;SDS011;6039;52.576;13.348;2023-06-22T11:19:14;3.92;;;3.60;;
11957;SDS011;6039;52.576;13.348;2023-06-22T11:24:18;3.97;;;3.20;;
11957;SDS011;6039;52.576;13.348;2023-06-22T11:29:24;3.53;;;3.20;;
11957;SDS011;6039;52.576;13.348;2023-06-22T11:34:28;4.03;;;3.20;;
11957;SDS011;6039;52.576;13.348;2023-06-22T11:39:32;3.40;;;3.10;;
11957;SDS011;6039;52.576;13.348;2023-06-22T11:44:39;4.07;;;3.15;;
11957;SDS011;6039;52.576;13.348;2023-06-22T11:49:44;3.75;;;3.30;;
11957;SDS011;6039;52.576;13.348;2023-06-22T11:54:48;3.45;;;3.10;;
11957;SDS011;6039;52.576;13.348;2023-06-22T11:59:55;3.38;;;3.08;;
11957;SDS011;6039;52.576;13.348;2023-06-22T12:04:59;3.85;;;3.45;;
11957;SDS011;6039;52.576;13.348;2023-06-22T12:10:05;4.88;;;3.65;;
11957;SDS011;6039;52.576;13.348;2023-06-22T12:15:12;5.25;;;3.63;;
11957;SDS011;6039;52.576;13.348;2023-06-22T12:20:16;3.55;;;3.25;;
11957;SDS011;6039;52.576;13.348;2023-06-22T12:25:21;4.85;;;3.65;;
11957;SDS011;6039;52.576;13.348;2023-06-22T12:30:27;3.75;;;3.20;;
11957;SDS011;6039;52.576;13.348;2023-06-22T12:35:31;4.07;;;3.20;;
11957;SDS011;6039;52.576;13.348;2023-06-22T12:40:36;4.15;;;3.47;;
11957;SDS011;6039;52.576;13.348;2023-06-22T12:45:43;3.72;;;3.17;;
11957;SDS011;6039;52.576;13.348;2023-06-22T12:50:47;3.55;;;3.15;;
11957;SDS011;6039;52.576;13.348;2023-06-22T12:55:51;4.72;;;3.65;;
11957;SDS011;6039;52.576;13.348;2023-06-22T13:00:58;4.53;;;3.75;;
11957;SDS011;6039;52.576;13.348;2023-06-22T13:06:02;3.40;;;3.10;;
11957;SDS011;6039;52.576;13.348;2023-06-22T13:11:06;4.20;;;3.22;;
11957;SDS011;6039;52.576;13.348;2023-06-22T13:16:12;4.28;;;3.78;;
11957;SDS011;6039;52.576;13.348;2023-06-22T13:21:16;3.97;;;3.58;;
11957;SDS011;6039;52.576;13.348;2023-06-22T13:26:20;5.00;;;3.97;;
11957;SDS011;6039;52.576;13.348;2023-06-22T13:31:31;4.70;;;3.90;;
11957;SDS011;6039;52.576;13.348;2023-06-22T13:36:35;3.75;;;3.33;;
11957;SDS011;6039;52.576;13.348;2023-06-22T13:41:39;5.88;;;4.00;;
11957;SDS011;6039;52.576;13.348;2023-06-22T13:46:46;4.15;;;3.65;;
11957;SDS011;6039;52.576;13.348;2023-06-22T13:51:50;4.38;;;3.97;;
11957;SDS011;6039;52.576;13.348;2023-06-22T13:56:54;5.80;;;3.83;;
11957;SDS011;6039;52.576;13.348;2023-06-22T14:02:00;4.15;;;3.75;;
11957;SDS011;6039;52.576;13.348;2023-06-22T14:07:05;4.30;;;3.90;;
11957;SDS011;6039;52.576;13.348;2023-06-22T14:12:09;4.05;;;3.65;;
11957;SDS011;6039;52.576;13.348;2023-06-22T14:17:16;5.15;;;3.97;;
11957;SDS011;6039;52.576;13.348;2023-06-22T14:22:24;4.25;;;3.85;;
11957;SDS011;6039;52.576;13.348;2023-06-22T14:27:33;5.78;;;4.72;;
11957;SDS011;6039;52.576;13.348;2023-06-22T14:32:39;4.90;;;4.40;;
11957;SDS011;6039;52.576;13.348;2023-06-22T14:37:46;6.65;;;4.22;;
11957;SDS011;6039;52.576;13.348;2023-06-22T14:42:49;5.63;;;4.28;;
11957;SDS011;6039;52.576;13.348;2023-06-22T14:47:59;6.72;;;4.45;;
11957;SDS011;6039;52.576;13.348;2023-06-22T14:53:03;4.65;;;4.15;;
11957;SDS011;6039;52.576;13.348;2023-06-22T14:58:07;4.68;;;4.18;;
11957;SDS011;6039;52.576;13.348;2023-06-22T15:03:13;4.75;;;3.88;;
11957;SDS011;6039;52.576;13.348;2023-06-22T15:08:21;4.97;;;3.80;;
11957;SDS011;6039;52.576;13.348;2023-06-22T15:13:26;4.20;;;3.80;;
11957;SDS011;6039;52.576;13.348;2023-06-22T15:18:35;4.93;;;3.85;;
11957;SDS011;6039;52.576;13.348;2023-06-22T15:23:41;4.80;;;4.18;;
11957;SDS011;6039;52.576;13.348;2023-06-22T15:28:44;4.40;;;4.00;;
11957;SDS011;6039;52.576;13.348;2023-06-22T15:33:51;4.68;;;3.90;;
11957;SDS011;6039;52.576;13.348;2023-06-22T15:38:55;4.57;;;3.92;;
11957;SDS011;6039;52.576;13.348;2023-06-22T15:43:59;4.88;;;4.05;;
11957;SDS011;6039;52.576;13.348;2023-06-22T15:49:11;4.65;;;4.10;;
11957;SDS011;6039;52.576;13.348;2023-06-22T15:54:19;3.75;;;3.45;;
11957;SDS011;6039;52.576;13.348;2023-06-22T15:59:23;4.55;;;4.15;;
11957;SDS011;6039;52.576;13.348;2023-06-22T16:04:34;5.47;;;4.40;;
11957;SDS011;6039;52.576;13.348;2023-06-22T16:09:38;3.90;;;3.50;;
11957;SDS011;6039;52.576;13.348;2023-06-22T16:14:43;4.30;;;3.90;;
11957;SDS011;6039;52.576;13.348;2023-06-22T16:19:49;4.68;;;3.88;;
11957;SDS011;6039;52.576;13.348;2023-06-22T16:24:54;4.68;;;3.80;;
11957;SDS011;6039;52.576;13.348;2023-06-22T16:29:58;5.40;;;4.20;;
11957;SDS011;6039;52.576;13.348;2023-06-22T16:35:06;4.90;;;4.05;;
11957;SDS011;6039;52.576;13.348;2023-06-22T16:40:11;4.53;;;3.83;;
11957;SDS011;6039;52.576;13.348;2023-06-22T16:45:15;4.68;;;4.18;;
11957;SDS011;6039;52.576;13.348;2023-06-22T16:50:22;5.22;;;4.22;;
11957;SDS011;6039;52.576;13.348;2023-06-22T16:55:25;4.65;;;4.15;;
11957;SDS011;6039;52.576;13.348;2023-06-22T17:00:32;4.50;;;4.10;;
11957;SDS011;6039;52.576;13.348;2023-06-22T17:05:39;5.05;;;4.55;;
11957;SDS011;6039;52.576;13.348;2023-06-22T17:10:43;5.10;;;4.43;;
11957;SDS011;6039;52.576;13.348;2023-06-22T17:15:48;6.97;;;4.15;;
11957;SDS011;6039;52.576;13.348;2023-06-22T17:21:00;5.57;;;4.50;;
11957;SDS011;6039;52.576;13.348;2023-06-22T17:26:04;5.03;;;4.40;;
11957;SDS011;6039;52.576;13.348;2023-06-22T17:31:09;5.38;;;4.30;;
11957;SDS011;6039;52.576;13.348;2023-06-22T17:36:16;5.03;;;4.15;;
11957;SDS011;6039;52.576;13.348;2023-06-22T17:41:20;4.55;;;3.95;;
11957;SDS011;6039;52.576;13.348;2023-06-22T17:46:23;4.73;;;4.33;;
11957;SDS011;6039;52.576;13.348;2023-06-22T17:51:30;5.43;;;4.50;;
11957;SDS011;6039;52.576;13.348;2023-06-22T17:56:34;5.47;;;4.22;;
11957;SDS011;6039;52.576;13.348;2023-06-22T18:01:38;4.73;;;4.03;;
11957;SDS011;6039;52.576;13.348;2023-06-22T18:06:45;4.80;;;4.30;;
11957;SDS011;6039;52.576;13.348;2023-06-22T18:11:51;5.00;;;4.38;;
11957;SDS011;6039;52.576;13.348;2023-06-22T18:16:58;5.40;;;4.43;;
11957;SDS011;6039;52.576;13.348;2023-06-22T18:22:05;4.82;;;4.32;;
11957;SDS011;6039;52.576;13.348;2023-06-22T18:27:09;6.32;;;4.45;;
11957;SDS011;6039;52.576;13.348;2023-06-22T18:32:14;4.65;;;3.92;;
11957;SDS011;6039;52.576;13.348;2023-06-22T18:37:20;4.38;;;3.88;;
11957;SDS011;6039;52.576;13.348;2023-06-22T18:42:25;5.20;;;4.30;;
11957;SDS011;6039;52.576;13.348;2023-06-22T18:47:30;5.25;;;4.40;;
11957;SDS011;6039;52.576;13.348;2023-06-22T18:52:38;5.05;;;4.40;;
11957;SDS011;6039;52.576;13.348;2023-06-22T18:57:42;4.75;;;4.25;;
11957;SDS011;6039;52.576;13.348;2023-06-22T19:02:46;5.70;;;4.60;;
11957;SDS011;6039;52.576;13.348;2023-06-22T19:08:05;5.50;;;4.95;;
11957;SDS011;6039;52.576;13.348;2023-06-22T19:13:20;6.25;;;4.90;;
11957;SDS011;6039;52.576;13.348;2023-06-22T19:18:31;5.50;;;4.80;;
11957;SDS011;6039;52.576;13.348;2023-06-22T19:23:39;5.90;;;5.28;;
11957;SDS011;6039;52.576;13.348;2023-06-22T19:28:44;6.93;;;4.90;;
11957;SDS011;6039;52.576;13.348;2023-06-22T19:33:51;5.43;;;4.82;;
11957;SDS011;6039;52.576;13.348;2023-06-22T19:38:59;5.45;;;4.90;;
11957;SDS011;6039;52.576;13.348;2023-06-22T19:44:04;5.43;;;4.93;;
11957;SDS011;6039;52.576;13.348;2023-06-22T19:49:08;5.30;;;4.80;;
11957;SDS011;6039;52.576;13.348;2023-06-22T19:54:16;6.63;;;5.20;;
11957;SDS011;6039;52.576;13.348;2023-06-22T19:59:20;6.78;;;4.63;;
11957;SDS011;6039;52.576;13.348;2023-06-22T20:04:26;5.40;;;4.70;;
11957;SDS011;6039;52.576;13.348;2023-06-22T20:09:33;5.53;;;4.90;;
11957;SDS011;6039;52.576;13.348;2023-06-22T20:14:41;6.47;;;4.60;;
11957;SDS011;6039;52.576;13.348;2023-06-22T20:19:45;6.00;;;5.13;;
11957;SDS011;6039;52.576;13.348;2023-06-22T20:24:58;4.93;;;4.43;;
11957;SDS011;6039;52.576;13.348;2023-06-22T20:30:11;6.13;;;4.80;;
11957;SDS011;6039;52.576;13.348;2023-06-22T20:35:17;6.15;;;4.93;;
11957;SDS011;6039;52.576;13.348;2023-06-22T20:40:24;7.15;;;5.53;;
11957;SDS011;6039;52.576;13.348;2023-06-22T20:45:29;10.63;;;6.00;;
11957;SDS011;6039;52.576;13.348;2023-06-22T20:50:33;8.67;;;6.63;;
11957;SDS011;6039;52.576;13.348;2023-06-22T20:55:40;9.33;;;7.10;;
11957;SDS011;6039;52.576;13.348;2023-06-22T21:00:44;9.03;;;7.07;;
11957;SDS011;6039;52.576;13.348;2023-06-22T21:05:48;9.10;;;7.23;;
11957;SDS011;6039;52.576;13.348;2023-06-22T21:10:54;9.57;;;7.40;;
11957;SDS011;6039;52.576;13.348;2023-06-22T21:15:58;7.83;;;7.03;;
11957;SDS011;6039;52.576;13.348;2023-06-22T21:21:02;9.30;;;7.80;;
11957;SDS011;6039;52.576;13.348;2023-06-22T21:26:09;9.57;;;8.13;;
11957;SDS011;6039;52.576;13.348;2023-06-22T21:31:13;10.23;;;8.00;;
11957;SDS011;6039;52.576;13.348;2023-06-22T21:36:17;9.03;;;7.23;;
11957;SDS011;6039;52.576;13.348;2023-06-22T21:41:24;10.47;;;7.63;;
11957;SDS011;6039;52.576;13.348;2023-06-22T21:46:28;9.33;;;7.77;;
11957;SDS011;6039;52.576;13.348;2023-06-22T21:51:32;10.07;;;8.57;;
11957;SDS011;6039;52.576;13.348;2023-06-22T21:56:38;12.27;;;8.67;;
11957;SDS011;6039;52.576;13.348;2023-06-22T22:01:42;13.03;;;9.40;;
11957;SDS011;6039;52.576;13.348;2023-06-22T22:06:46;12.07;;;9.10;;
11957;SDS011;6039;52.576;13.348;2023-06-22T22:11:53;9.47;;;8.20;;
11957;SDS011;6039;52.576;13.348;2023-06-22T22:16:57;11.33;;;8.60;;
11957;SDS011;6039;52.576;13.348;2023-06-22T22:22:01;11.80;;;9.23;;
11957;SDS011;6039;52.576;13.348;2023-06-22T22:27:08;9.77;;;8.63;;
11957;SDS011;6039;52.576;13.348;2023-06-22T22:32:12;9.80;;;8.50;;
11957;SDS011;6039;52.576;13.348;2023-06-22T22:37:16;10.03;;;8.17;;
11957;SDS011;6039;52.576;13.348;2023-06-22T22:42:23;11.03;;;8.50;;
11957;SDS011;6039;52.576;13.348;2023-06-22T22:47:27;10.43;;;8.27;;
11957;SDS011;6039;52.576;13.348;2023-06-22T22:52:31;8.67;;;7.23;;
11957;SDS011;6039;52.576;13.348;2023-06-22T22:57:38;9.43;;;6.97;;
11957;SDS011;6039;52.576;13.348;2023-06-22T23:02:42;7.50;;;6.60;;
11957;SDS011;6039;52.576;13.348;2023-06-22T23:07:47;8.93;;;7.53;;
11957;SDS011;6039;52.576;13.348;2023-06-22T23:12:54;9.20;;;7.00;;
11957;SDS011;6039;52.576;13.348;2023-06-22T23:17:58;8.60;;;7.40;;
11957;SDS011;6039;52.576;13.348;2023-06-22T23:23:02;8.67;;;7.07;;
11957;SDS011;6039;52.576;13.348;2023-06-22T23:28:09;8.97;;;7.57;;
11957;SDS011;6039;52.576;13.348;2023-06-22T23:33:13;8.50;;;6.70;;
11957;SDS011;6039;52.576;13.348;2023-06-22T23:38:17;10.10;;;7.50;;
11957;SDS011;6039;52.576;13.348;2023-06-22T23:43:23;8.13;;;6.90;;
11957;SDS011;6039;52.576;13.348;2023-06-22T23:48:27;12.17;;;7.43;;
11957;SDS011;6039;52.576;13.348;2023-06-22T23:53:31;9.40;;;7.67;;
11957;SDS011;6039;52.576;13.348;2023-06-22T23:58:38;9.03;;;7.37;;
